createdAt,value
2019-05-10T00:04:49.004Z,10.80
2019-05-10T00:09:33.699Z,10.40
2019-05-10T00:14:41.284Z,10.40
2019-05-10T00:19:27.218Z,10.30
2019-05-10T00:24:13.231Z,10.20
2019-05-10T00:28:59.033Z,10.10
2019-05-10T00:33:45.011Z,10.20
2019-05-10T00:38:30.940Z,10.20
2019-05-10T00:43:16.944Z,10.20
2019-05-10T00:48:02.838Z,10.30
2019-05-10T00:52:48.677Z,10.40
2019-05-10T00:57:34.552Z,10.60
2019-05-10T01:02:20.315Z,10.70
2019-05-10T01:07:06.144Z,10.80
2019-05-10T01:11:51.859Z,10.70
2019-05-10T01:16:37.719Z,10.70
2019-05-10T01:21:23.595Z,10.70
2019-05-10T01:26:10.194Z,10.70
2019-05-10T01:30:56.015Z,10.70
2019-05-10T01:35:41.943Z,10.60
2019-05-10T01:40:28.249Z,10.50
2019-05-10T01:45:14.273Z,10.50
2019-05-10T01:50:00.551Z,10.50
2019-05-10T01:54:46.671Z,10.50
2019-05-10T01:59:32.499Z,10.30
2019-05-10T02:04:18.447Z,10.20
2019-05-10T02:09:05.493Z,10.20
2019-05-10T02:13:51.501Z,10.20
2019-05-10T02:18:37.723Z,10.20
2019-05-10T02:23:23.573Z,10.30
2019-05-10T02:28:09.444Z,10.30
2019-05-10T02:32:55.266Z,10.40
2019-05-10T02:37:41.145Z,10.40
2019-05-10T02:42:26.912Z,10.50
2019-05-10T02:47:12.740Z,10.50
2019-05-10T02:51:58.523Z,10.50
2019-05-10T02:56:44.768Z,10.40
2019-05-10T03:01:31.650Z,10.40
2019-05-10T03:06:20.242Z,10.40
2019-05-10T03:11:06.023Z,10.30
2019-05-10T03:15:55.097Z,10.10
2019-05-10T03:20:41.590Z,10.10
2019-05-10T03:25:28.132Z,10.10
2019-05-10T03:30:14.179Z,10.10
2019-05-10T03:34:59.994Z,10.20
2019-05-10T03:39:46.159Z,10.20
2019-05-10T03:44:32.052Z,10.10
2019-05-10T03:49:17.725Z,10.20
2019-05-10T03:54:22.418Z,10.10
2019-05-10T03:59:08.277Z,10.10
2019-05-10T04:03:54.017Z,10.10
2019-05-10T04:08:39.902Z,10.00
2019-05-10T04:13:25.649Z,10.00
2019-05-10T04:18:11.351Z,10.00
2019-05-10T04:22:57.312Z,10.00
2019-05-10T04:27:43.211Z,10.10
2019-05-10T04:32:28.903Z,10.10
2019-05-10T04:37:14.573Z,9.90
2019-05-10T04:42:00.367Z,10.00
2019-05-10T04:46:46.253Z,9.80
2019-05-10T04:51:32.183Z,9.90
2019-05-10T04:56:18.202Z,9.90
2019-05-10T05:01:04.142Z,10.00
2019-05-10T05:05:50.204Z,10.00
2019-05-10T05:10:36.201Z,10.00
2019-05-10T05:15:22.056Z,10.00
2019-05-10T05:20:08.171Z,10.00
2019-05-10T05:24:55.062Z,10.00
2019-05-10T05:29:41.461Z,10.00
2019-05-10T05:34:27.268Z,10.20
2019-05-10T05:39:13.428Z,10.10
2019-05-10T05:43:59.274Z,10.20
2019-05-10T05:48:45.317Z,10.30
2019-05-10T05:53:35.863Z,10.20
2019-05-10T05:58:26.864Z,10.30
2019-05-10T06:03:06.736Z,10.30
2019-05-10T06:07:52.988Z,10.30
2019-05-10T06:12:38.917Z,10.10
2019-05-10T06:17:29.440Z,10.00
2019-05-10T06:22:12.337Z,10.00
2019-05-10T06:27:02.954Z,10.20
2019-05-10T06:31:45.545Z,10.30
2019-05-10T06:36:31.936Z,10.30
2019-05-10T06:41:19.261Z,10.40
2019-05-10T06:46:05.403Z,10.30
2019-05-10T06:50:51.235Z,10.30
2019-05-10T06:55:37.199Z,10.30
2019-05-10T07:00:22.926Z,10.50
2019-05-10T07:05:08.982Z,10.70
2019-05-10T07:10:12.254Z,11.00
2019-05-10T07:14:45.920Z,11.30
2019-05-10T07:19:34.781Z,11.30
2019-05-10T07:24:18.524Z,11.30
2019-05-10T07:29:05.157Z,11.30
2019-05-10T07:33:51.012Z,11.80
2019-05-10T07:38:36.670Z,11.60
2019-05-10T07:43:26.443Z,11.80
2019-05-10T07:48:10.407Z,11.90
2019-05-10T07:52:56.569Z,12.30
2019-05-10T07:57:42.383Z,12.60
2019-05-10T08:02:28.299Z,12.90
2019-05-10T08:07:14.202Z,13.00
2019-05-10T08:12:04.927Z,13.10
2019-05-10T08:16:49.883Z,13.50
2019-05-10T08:21:35.050Z,13.20
2019-05-10T08:26:24.556Z,13.90
2019-05-10T08:31:08.539Z,14.90
2019-05-10T08:36:00.724Z,14.40
2019-05-10T08:40:42.805Z,15.30
2019-05-10T08:45:29.106Z,15.80
2019-05-10T08:50:29.390Z,16.30
2019-05-10T08:55:03.015Z,16.40
2019-05-10T08:59:53.497Z,16.00
2019-05-10T09:04:45.357Z,16.10
2019-05-10T09:09:23.801Z,16.00
2019-05-10T09:14:12.377Z,16.50
2019-05-10T09:18:56.945Z,16.80
2019-05-10T09:23:42.850Z,17.70
2019-05-10T09:28:28.578Z,18.00
2019-05-10T09:33:14.769Z,17.80
2019-05-10T09:38:01.973Z,17.80
2019-05-10T09:42:48.107Z,17.60
2019-05-10T09:47:33.921Z,17.30
2019-05-10T09:52:19.753Z,16.90
2019-05-10T09:57:08.067Z,17.10
2019-05-10T10:01:53.318Z,17.20
2019-05-10T10:06:41.985Z,16.60
2019-05-10T10:11:27.805Z,16.60
2019-05-10T10:16:14.952Z,16.70
2019-05-10T10:21:01.038Z,16.80
2019-05-10T10:25:48.410Z,17.10
2019-05-10T10:30:37.079Z,17.20
2019-05-10T10:35:26.862Z,17.30
2019-05-10T10:40:10.326Z,17.00
2019-05-10T10:44:56.151Z,17.60
2019-05-10T10:49:42.323Z,17.60
2019-05-10T10:54:36.271Z,18.20
2019-05-10T10:59:18.184Z,19.20
2019-05-10T11:04:08.026Z,20.30
2019-05-10T11:08:51.939Z,22.10
2019-05-10T11:13:44.071Z,22.90
2019-05-10T11:18:25.314Z,23.90
2019-05-10T11:23:11.236Z,24.00
2019-05-10T11:28:00.991Z,22.60
2019-05-10T11:32:44.785Z,21.30
2019-05-10T11:37:35.912Z,20.40
2019-05-10T11:42:18.319Z,20.10
2019-05-10T11:47:04.125Z,20.70
2019-05-10T11:51:54.840Z,20.70
2019-05-10T11:56:37.413Z,21.20
2019-05-10T12:01:23.418Z,21.90
2019-05-10T12:06:12.205Z,23.00
2019-05-10T12:11:10.390Z,25.60
2019-05-10T12:15:44.242Z,21.60
2019-05-10T12:20:41.581Z,19.90
2019-05-10T12:25:37.778Z,21.80
2019-05-10T12:30:04.970Z,21.50
2019-05-10T12:34:55.019Z,20.70
2019-05-10T12:39:38.441Z,19.90
2019-05-10T12:44:24.357Z,20.30
2019-05-10T12:49:11.976Z,21.00
2019-05-10T12:53:57.999Z,21.90
2019-05-10T12:58:44.101Z,26.40
2019-05-10T13:03:31.671Z,26.80
2019-05-10T13:08:17.390Z,24.10
2019-05-10T13:13:03.480Z,22.20
2019-05-10T13:17:52.774Z,21.30
2019-05-10T13:22:39.167Z,20.60
2019-05-10T13:27:24.231Z,20.70
2019-05-10T13:32:14.761Z,21.60
2019-05-10T13:36:57.456Z,22.20
2019-05-10T13:41:43.347Z,22.40
2019-05-10T13:46:29.359Z,23.20
2019-05-10T13:51:15.311Z,24.60
2019-05-10T13:56:01.467Z,26.90
2019-05-10T14:00:47.618Z,27.40
2019-05-10T14:05:33.501Z,26.40
2019-05-10T14:10:23.254Z,24.20
2019-05-10T14:15:12.836Z,23.70
2019-05-10T14:19:55.009Z,24.00
2019-05-10T14:24:40.853Z,24.20
2019-05-10T14:29:33.971Z,22.90
2019-05-10T14:34:15.502Z,23.80
2019-05-10T14:39:01.989Z,28.40
2019-05-10T14:43:47.738Z,28.80
2019-05-10T14:48:35.596Z,29.20
2019-05-10T14:53:25.568Z,27.50
2019-05-10T14:58:08.719Z,27.30
2019-05-10T15:02:56.690Z,28.20
2019-05-10T15:07:42.025Z,29.80
2019-05-10T15:12:27.789Z,26.60
2019-05-10T15:17:13.520Z,23.70
2019-05-10T15:21:59.523Z,23.70
2019-05-10T15:26:46.198Z,23.10
2019-05-10T15:31:32.812Z,21.70
2019-05-10T15:36:23.650Z,20.40
2019-05-10T15:41:07.063Z,19.30
2019-05-10T15:45:54.968Z,19.20
2019-05-10T15:50:41.254Z,20.40
2019-05-10T15:55:28.826Z,21.50
2019-05-10T16:00:15.617Z,20.60
2019-05-10T16:05:01.459Z,20.50
2019-05-10T16:09:49.873Z,24.50
2019-05-10T16:14:39.104Z,25.00
2019-05-10T16:19:23.548Z,23.10
2019-05-10T16:24:13.245Z,22.60
2019-05-10T16:29:01.836Z,23.30
2019-05-10T16:33:52.861Z,20.50
2019-05-10T16:38:37.562Z,19.40
2019-05-10T16:43:24.826Z,19.70
2019-05-10T16:48:11.876Z,20.20
2019-05-10T16:53:05.493Z,20.70
2019-05-10T17:02:49.069Z,22.00
2019-05-10T17:07:35.069Z,21.50
2019-05-10T17:12:27.427Z,20.50
2019-05-10T17:17:09.636Z,21.30
2019-05-10T17:21:56.447Z,22.30
2019-05-10T17:26:42.525Z,22.30
2019-05-10T17:31:28.986Z,22.30
2019-05-10T17:36:19.872Z,23.50
2019-05-10T17:41:04.745Z,24.30
2019-05-10T17:45:50.771Z,22.30
2019-05-10T17:50:36.549Z,20.50
2019-05-10T17:55:42.042Z,19.10
2019-05-10T18:00:28.876Z,17.50
2019-05-10T18:05:15.106Z,16.60
2019-05-10T18:10:01.029Z,16.20
2019-05-10T18:14:50.145Z,16.00
2019-05-10T18:19:34.673Z,15.70
2019-05-10T18:24:22.553Z,15.60
2019-05-10T18:29:08.415Z,15.30
2019-05-10T18:33:55.904Z,15.20
2019-05-10T18:38:42.569Z,15.10
2019-05-10T18:43:28.581Z,14.80
2019-05-10T18:48:14.650Z,14.40
2019-05-10T18:53:00.720Z,14.20
2019-05-10T18:57:50.654Z,14.00
2019-05-10T19:02:34.632Z,13.80
2019-05-10T19:07:20.951Z,13.50
2019-05-10T19:12:17.587Z,13.10
2019-05-10T19:16:54.875Z,12.80
2019-05-10T19:21:41.123Z,12.80
2019-05-10T19:26:29.743Z,12.60
2019-05-10T19:31:15.520Z,12.30
2019-05-10T19:36:01.655Z,12.20
2019-05-10T19:40:48.416Z,12.00
2019-05-10T19:45:34.579Z,11.80
2019-05-10T19:50:24.269Z,11.70
2019-05-10T19:55:12.947Z,11.70
2019-05-10T19:59:56.631Z,11.70
2019-05-10T20:04:42.816Z,11.70
2019-05-10T20:09:28.727Z,11.50
2019-05-10T20:14:14.810Z,11.40
2019-05-10T20:19:00.835Z,11.50
2019-05-10T20:23:47.135Z,11.70
2019-05-10T20:28:32.974Z,11.60
2019-05-10T20:33:18.929Z,11.30
2019-05-10T20:38:04.720Z,11.40
2019-05-10T20:42:50.606Z,11.70
2019-05-10T20:47:36.532Z,12.00
2019-05-10T20:52:22.436Z,12.20
2019-05-10T20:57:08.777Z,12.50
2019-05-10T21:01:54.647Z,12.50
2019-05-10T21:06:40.443Z,12.50
2019-05-10T21:11:26.155Z,12.40
2019-05-10T21:16:12.124Z,12.30
2019-05-10T21:20:57.878Z,12.10
2019-05-10T21:25:44.206Z,12.00
2019-05-10T21:30:29.953Z,12.00
2019-05-10T21:35:15.739Z,12.00
2019-05-10T21:40:01.638Z,12.20
2019-05-10T21:44:47.662Z,12.20
2019-05-10T21:49:33.621Z,12.20
2019-05-10T21:54:19.534Z,12.20
2019-05-10T21:59:05.567Z,12.10
2019-05-10T22:03:51.733Z,11.90
2019-05-10T22:08:49.123Z,11.90
2019-05-10T22:13:25.149Z,11.90
2019-05-10T22:18:10.907Z,12.10
2019-05-10T22:22:56.672Z,12.20
2019-05-10T22:27:42.543Z,12.10
2019-05-10T22:32:28.286Z,12.00
2019-05-10T22:37:14.119Z,11.90
2019-05-10T22:41:59.880Z,11.90
2019-05-10T22:46:45.675Z,11.80
2019-05-10T22:51:31.485Z,11.80
2019-05-10T22:56:17.232Z,11.90
2019-05-10T23:01:03.159Z,12.30
2019-05-10T23:05:48.843Z,12.60
2019-05-10T23:10:34.699Z,12.70
2019-05-10T23:15:21.346Z,12.80
2019-05-10T23:20:07.252Z,12.90
2019-05-10T23:24:53.220Z,12.90
2019-05-10T23:29:39.028Z,12.80
2019-05-10T23:34:24.875Z,12.60
2019-05-10T23:39:10.639Z,12.60
2019-05-10T23:43:56.371Z,12.80
2019-05-10T23:48:42.317Z,12.70
2019-05-10T23:53:28.135Z,12.40
2019-05-10T23:58:14.407Z,12.40
